sensor_id;sensor_type;location;lat;lon;timestamp;P1;durP1;ratioP1;P2;durP2;ratioP2
60054;SDS011;45930;53.514;55.904;2022-12-07T00:00:46;52.77;;;24.50;;
60054;SDS011;45930;53.514;55.904;2022-12-07T00:01:47;48.33;;;24.70;;
60054;SDS011;45930;53.514;55.904;2022-12-07T00:02:48;56.87;;;25.80;;
60054;SDS011;45930;53.514;55.904;2022-12-07T00:03:49;60.57;;;25.97;;
60054;SDS011;45930;53.514;55.904;2022-12-07T00:04:53;59.33;;;26.10;;
60054;SDS011;45930;53.514;55.904;2022-12-07T00:05:56;66.80;;;27.40;;
60054;SDS011;45930;53.514;55.904;2022-12-07T00:06:58;63.92;;;28.58;;
60054;SDS011;45930;53.514;55.904;2022-12-07T00:07:58;62.33;;;29.40;;
60054;SDS011;45930;53.514;55.904;2022-12-07T00:08:59;73.77;;;31.73;;
60054;SDS011;45930;53.514;55.904;2022-12-07T00:10:00;82.93;;;33.23;;
60054;SDS011;45930;53.514;55.904;2022-12-07T00:11:04;82.30;;;31.20;;
60054;SDS011;45930;53.514;55.904;2022-12-07T00:12:07;64.70;;;30.38;;
60054;SDS011;45930;53.514;55.904;2022-12-07T00:13:08;70.20;;;31.52;;
60054;SDS011;45930;53.514;55.904;2022-12-07T00:14:13;69.70;;;29.37;;
60054;SDS011;45930;53.514;55.904;2022-12-07T00:15:15;69.32;;;28.05;;
60054;SDS011;45930;53.514;55.904;2022-12-07T00:16:17;70.80;;;29.43;;
60054;SDS011;45930;53.514;55.904;2022-12-07T00:17:19;70.05;;;30.70;;
60054;SDS011;45930;53.514;55.904;2022-12-07T00:18:20;69.40;;;30.67;;
60054;SDS011;45930;53.514;55.904;2022-12-07T00:19:20;76.80;;;33.47;;
60054;SDS011;45930;53.514;55.904;2022-12-07T00:20:21;73.93;;;32.57;;
60054;SDS011;45930;53.514;55.904;2022-12-07T00:21:26;79.43;;;30.17;;
60054;SDS011;45930;53.514;55.904;2022-12-07T00:22:28;83.32;;;32.88;;
60054;SDS011;45930;53.514;55.904;2022-12-07T00:23:29;69.60;;;30.73;;
60054;SDS011;45930;53.514;55.904;2022-12-07T00:24:30;80.32;;;31.65;;
60054;SDS011;45930;53.514;55.904;2022-12-07T00:25:30;62.33;;;29.20;;
60054;SDS011;45930;53.514;55.904;2022-12-07T00:26:38;74.27;;;31.73;;
60054;SDS011;45930;53.514;55.904;2022-12-07T00:27:39;73.43;;;29.88;;
60054;SDS011;45930;53.514;55.904;2022-12-07T00:28:40;67.83;;;28.13;;
60054;SDS011;45930;53.514;55.904;2022-12-07T00:29:41;63.05;;;30.02;;
60054;SDS011;45930;53.514;55.904;2022-12-07T00:30:42;74.07;;;31.90;;
60054;SDS011;45930;53.514;55.904;2022-12-07T00:31:43;67.07;;;29.67;;
60054;SDS011;45930;53.514;55.904;2022-12-07T00:32:44;66.43;;;28.03;;
60054;SDS011;45930;53.514;55.904;2022-12-07T00:33:45;68.70;;;30.73;;
60054;SDS011;45930;53.514;55.904;2022-12-07T00:34:46;70.50;;;29.48;;
60054;SDS011;45930;53.514;55.904;2022-12-07T00:35:54;65.90;;;31.23;;
60054;SDS011;45930;53.514;55.904;2022-12-07T00:36:55;71.80;;;31.45;;
60054;SDS011;45930;53.514;55.904;2022-12-07T00:37:56;61.57;;;31.50;;
60054;SDS011;45930;53.514;55.904;2022-12-07T00:38:57;72.60;;;30.53;;
60054;SDS011;45930;53.514;55.904;2022-12-07T00:39:59;66.35;;;29.13;;
60054;SDS011;45930;53.514;55.904;2022-12-07T00:41:15;63.20;;;31.13;;
60054;SDS011;45930;53.514;55.904;2022-12-07T00:42:17;75.68;;;29.52;;
60054;SDS011;45930;53.514;55.904;2022-12-07T00:43:18;61.50;;;26.87;;
60054;SDS011;45930;53.514;55.904;2022-12-07T00:44:19;55.63;;;27.67;;
60054;SDS011;45930;53.514;55.904;2022-12-07T00:45:22;66.93;;;28.23;;
60054;SDS011;45930;53.514;55.904;2022-12-07T00:46:23;64.23;;;28.97;;
60054;SDS011;45930;53.514;55.904;2022-12-07T00:47:24;64.63;;;27.25;;
60054;SDS011;45930;53.514;55.904;2022-12-07T00:48:25;55.07;;;27.47;;
60054;SDS011;45930;53.514;55.904;2022-12-07T00:49:26;69.13;;;30.90;;
60054;SDS011;45930;53.514;55.904;2022-12-07T00:50:27;72.17;;;31.67;;
60054;SDS011;45930;53.514;55.904;2022-12-07T00:51:28;71.37;;;30.23;;
60054;SDS011;45930;53.514;55.904;2022-12-07T00:52:28;69.90;;;30.93;;
60054;SDS011;45930;53.514;55.904;2022-12-07T00:53:29;65.47;;;30.60;;
60054;SDS011;45930;53.514;55.904;2022-12-07T00:54:30;75.47;;;30.38;;
60054;SDS011;45930;53.514;55.904;2022-12-07T00:55:37;69.93;;;28.73;;
60054;SDS011;45930;53.514;55.904;2022-12-07T00:56:38;73.95;;;30.58;;
60054;SDS011;45930;53.514;55.904;2022-12-07T00:57:38;67.87;;;28.83;;
60054;SDS011;45930;53.514;55.904;2022-12-07T00:58:39;69.33;;;31.43;;
60054;SDS011;45930;53.514;55.904;2022-12-07T00:59:40;68.00;;;31.08;;
60054;SDS011;45930;53.514;55.904;2022-12-07T01:00:41;71.67;;;31.53;;
60054;SDS011;45930;53.514;55.904;2022-12-07T01:01:43;73.93;;;31.90;;
60054;SDS011;45930;53.514;55.904;2022-12-07T01:02:44;77.20;;;33.10;;
60054;SDS011;45930;53.514;55.904;2022-12-07T01:03:44;79.73;;;32.87;;
60054;SDS011;45930;53.514;55.904;2022-12-07T01:04:45;81.90;;;33.43;;
60054;SDS011;45930;53.514;55.904;2022-12-07T01:05:53;80.90;;;32.87;;
60054;SDS011;45930;53.514;55.904;2022-12-07T01:07:55;61.17;;;26.50;;
60054;SDS011;45930;53.514;55.904;2022-12-07T01:08:59;70.50;;;30.77;;
60054;SDS011;45930;53.514;55.904;2022-12-07T01:10:01;69.85;;;30.58;;
60054;SDS011;45930;53.514;55.904;2022-12-07T01:11:06;82.23;;;29.50;;
60054;SDS011;45930;53.514;55.904;2022-12-07T01:12:08;62.53;;;28.50;;
60054;SDS011;45930;53.514;55.904;2022-12-07T01:13:08;67.17;;;29.30;;
60054;SDS011;45930;53.514;55.904;2022-12-07T01:14:09;78.60;;;33.93;;
60054;SDS011;45930;53.514;55.904;2022-12-07T01:15:10;68.00;;;28.93;;
60054;SDS011;45930;53.514;55.904;2022-12-07T01:16:12;78.33;;;30.70;;
60054;SDS011;45930;53.514;55.904;2022-12-07T01:17:14;66.88;;;27.70;;
60054;SDS011;45930;53.514;55.904;2022-12-07T01:18:15;75.27;;;32.00;;
60054;SDS011;45930;53.514;55.904;2022-12-07T01:19:15;66.90;;;32.40;;
60054;SDS011;45930;53.514;55.904;2022-12-07T01:20:16;69.60;;;29.33;;
60054;SDS011;45930;53.514;55.904;2022-12-07T01:21:21;64.30;;;29.77;;
60054;SDS011;45930;53.514;55.904;2022-12-07T01:22:23;67.95;;;27.92;;
60054;SDS011;45930;53.514;55.904;2022-12-07T01:23:24;66.13;;;28.80;;
60054;SDS011;45930;53.514;55.904;2022-12-07T01:24:25;65.33;;;29.33;;
60054;SDS011;45930;53.514;55.904;2022-12-07T01:25:25;70.83;;;29.80;;
60054;SDS011;45930;53.514;55.904;2022-12-07T01:26:26;70.63;;;31.77;;
60054;SDS011;45930;53.514;55.904;2022-12-07T01:27:27;69.50;;;32.10;;
60054;SDS011;45930;53.514;55.904;2022-12-07T01:28:28;79.77;;;33.90;;
60054;SDS011;45930;53.514;55.904;2022-12-07T01:29:29;94.13;;;35.27;;
60054;SDS011;45930;53.514;55.904;2022-12-07T01:30:30;90.07;;;34.07;;
60054;SDS011;45930;53.514;55.904;2022-12-07T01:31:31;81.73;;;31.67;;
60054;SDS011;45930;53.514;55.904;2022-12-07T01:32:32;63.17;;;30.97;;
60054;SDS011;45930;53.514;55.904;2022-12-07T01:33:34;68.32;;;31.42;;
60054;SDS011;45930;53.514;55.904;2022-12-07T01:34:36;77.40;;;28.77;;
60054;SDS011;45930;53.514;55.904;2022-12-07T01:35:37;70.80;;;29.30;;
60054;SDS011;45930;53.514;55.904;2022-12-07T01:36:38;75.03;;;30.60;;
60054;SDS011;45930;53.514;55.904;2022-12-07T01:37:39;69.87;;;31.20;;
60054;SDS011;45930;53.514;55.904;2022-12-07T01:38:40;75.93;;;29.97;;
60054;SDS011;45930;53.514;55.904;2022-12-07T01:39:41;74.43;;;29.30;;
60054;SDS011;45930;53.514;55.904;2022-12-07T01:40:42;68.13;;;30.47;;
60054;SDS011;45930;53.514;55.904;2022-12-07T01:41:42;77.37;;;32.03;;
60054;SDS011;45930;53.514;55.904;2022-12-07T01:42:47;76.65;;;30.90;;
60054;SDS011;45930;53.514;55.904;2022-12-07T01:46:51;64.95;;;27.50;;
60054;SDS011;45930;53.514;55.904;2022-12-07T01:47:58;57.95;;;27.90;;
60054;SDS011;45930;53.514;55.904;2022-12-07T01:48:59;79.75;;;29.50;;
60054;SDS011;45930;53.514;55.904;2022-12-07T01:50:01;61.80;;;28.63;;
60054;SDS011;45930;53.514;55.904;2022-12-07T01:51:11;73.40;;;31.55;;
60054;SDS011;45930;53.514;55.904;2022-12-07T01:53:17;70.03;;;32.95;;
60054;SDS011;45930;53.514;55.904;2022-12-07T01:54:18;82.30;;;33.63;;
60054;SDS011;45930;53.514;55.904;2022-12-07T01:55:21;82.22;;;34.70;;
60054;SDS011;45930;53.514;55.904;2022-12-07T01:56:23;76.00;;;32.75;;
60054;SDS011;45930;53.514;55.904;2022-12-07T01:57:27;80.85;;;33.95;;
60054;SDS011;45930;53.514;55.904;2022-12-07T01:58:28;88.05;;;34.83;;
60054;SDS011;45930;53.514;55.904;2022-12-07T01:59:29;82.63;;;37.45;;
60054;SDS011;45930;53.514;55.904;2022-12-07T02:00:30;96.53;;;39.40;;
60054;SDS011;45930;53.514;55.904;2022-12-07T02:01:31;92.77;;;38.43;;
60054;SDS011;45930;53.514;55.904;2022-12-07T02:02:36;78.00;;;35.77;;
60054;SDS011;45930;53.514;55.904;2022-12-07T02:03:42;80.35;;;35.05;;
60054;SDS011;45930;53.514;55.904;2022-12-07T02:04:45;83.03;;;34.88;;
60054;SDS011;45930;53.514;55.904;2022-12-07T02:05:46;82.63;;;34.47;;
60054;SDS011;45930;53.514;55.904;2022-12-07T02:06:48;82.57;;;34.10;;
60054;SDS011;45930;53.514;55.904;2022-12-07T02:07:51;91.40;;;35.15;;
60054;SDS011;45930;53.514;55.904;2022-12-07T02:08:55;77.07;;;35.60;;
60054;SDS011;45930;53.514;55.904;2022-12-07T02:09:55;83.33;;;37.07;;
60054;SDS011;45930;53.514;55.904;2022-12-07T02:10:56;86.10;;;37.23;;
60054;SDS011;45930;53.514;55.904;2022-12-07T02:11:57;93.83;;;38.70;;
60054;SDS011;45930;53.514;55.904;2022-12-07T02:13:00;93.63;;;38.50;;
60054;SDS011;45930;53.514;55.904;2022-12-07T02:14:04;94.05;;;38.17;;
60054;SDS011;45930;53.514;55.904;2022-12-07T02:15:05;100.53;;;37.40;;
60054;SDS011;45930;53.514;55.904;2022-12-07T02:17:31;94.68;;;36.55;;
60054;SDS011;45930;53.514;55.904;2022-12-07T02:18:59;80.47;;;33.20;;
60054;SDS011;45930;53.514;55.904;2022-12-07T02:21:29;87.45;;;35.08;;
60054;SDS011;45930;53.514;55.904;2022-12-07T02:30:21;93.80;;;38.60;;
60054;SDS011;45930;53.514;55.904;2022-12-07T02:31:28;94.38;;;37.10;;
60054;SDS011;45930;53.514;55.904;2022-12-07T02:32:39;88.55;;;38.17;;
60054;SDS011;45930;53.514;55.904;2022-12-07T02:33:49;106.82;;;41.83;;
60054;SDS011;45930;53.514;55.904;2022-12-07T02:36:45;91.30;;;36.90;;
60054;SDS011;45930;53.514;55.904;2022-12-07T02:37:51;84.50;;;36.50;;
60054;SDS011;45930;53.514;55.904;2022-12-07T02:39:04;85.28;;;36.75;;
60054;SDS011;45930;53.514;55.904;2022-12-07T02:40:24;107.93;;;38.92;;
60054;SDS011;45930;53.514;55.904;2022-12-07T02:41:30;104.53;;;38.20;;
60054;SDS011;45930;53.514;55.904;2022-12-07T02:43:01;83.72;;;39.53;;
60054;SDS011;45930;53.514;55.904;2022-12-07T02:44:07;92.78;;;37.50;;
60054;SDS011;45930;53.514;55.904;2022-12-07T02:45:13;93.32;;;38.28;;
60054;SDS011;45930;53.514;55.904;2022-12-07T02:46:18;101.50;;;38.65;;
60054;SDS011;45930;53.514;55.904;2022-12-07T02:47:23;109.70;;;43.28;;
60054;SDS011;45930;53.514;55.904;2022-12-07T02:48:28;102.50;;;40.28;;
60054;SDS011;45930;53.514;55.904;2022-12-07T02:49:29;93.68;;;38.47;;
60054;SDS011;45930;53.514;55.904;2022-12-07T02:50:30;109.85;;;42.28;;
60054;SDS011;45930;53.514;55.904;2022-12-07T02:51:32;106.53;;;41.90;;
60054;SDS011;45930;53.514;55.904;2022-12-07T02:52:33;110.10;;;43.15;;
60054;SDS011;45930;53.514;55.904;2022-12-07T02:53:38;128.73;;;42.00;;
60054;SDS011;45930;53.514;55.904;2022-12-07T02:54:40;102.93;;;40.88;;
60054;SDS011;45930;53.514;55.904;2022-12-07T02:55:41;103.57;;;43.10;;
60054;SDS011;45930;53.514;55.904;2022-12-07T02:56:45;105.10;;;41.90;;
60054;SDS011;45930;53.514;55.904;2022-12-07T02:57:55;111.85;;;39.80;;
60054;SDS011;45930;53.514;55.904;2022-12-07T03:00:42;93.00;;;37.33;;
60054;SDS011;45930;53.514;55.904;2022-12-07T03:03:14;101.10;;;37.05;;
60054;SDS011;45930;53.514;55.904;2022-12-07T03:04:32;97.35;;;40.80;;
60054;SDS011;45930;53.514;55.904;2022-12-07T03:06:50;115.85;;;41.85;;
60054;SDS011;45930;53.514;55.904;2022-12-07T03:11:45;113.73;;;37.87;;
60054;SDS011;45930;53.514;55.904;2022-12-07T03:14:22;93.68;;;33.17;;
60054;SDS011;45930;53.514;55.904;2022-12-07T03:15:31;85.03;;;34.35;;
60054;SDS011;45930;53.514;55.904;2022-12-07T03:16:41;94.47;;;36.72;;
60054;SDS011;45930;53.514;55.904;2022-12-07T03:17:47;124.63;;;40.35;;
60054;SDS011;45930;53.514;55.904;2022-12-07T03:18:53;91.22;;;37.65;;
60054;SDS011;45930;53.514;55.904;2022-12-07T03:19:58;98.18;;;40.47;;
60054;SDS011;45930;53.514;55.904;2022-12-07T03:21:04;102.13;;;40.50;;
60054;SDS011;45930;53.514;55.904;2022-12-07T03:22:10;111.20;;;40.15;;
60054;SDS011;45930;53.514;55.904;2022-12-07T03:23:13;87.20;;;37.72;;
60054;SDS011;45930;53.514;55.904;2022-12-07T03:24:21;88.78;;;39.65;;
60054;SDS011;45930;53.514;55.904;2022-12-07T03:25:26;93.82;;;37.55;;
60054;SDS011;45930;53.514;55.904;2022-12-07T03:26:34;93.25;;;37.65;;
60054;SDS011;45930;53.514;55.904;2022-12-07T03:28:40;95.03;;;36.30;;
60054;SDS011;45930;53.514;55.904;2022-12-07T03:29:56;86.78;;;37.55;;
60054;SDS011;45930;53.514;55.904;2022-12-07T03:32:23;90.47;;;33.97;;
60054;SDS011;45930;53.514;55.904;2022-12-07T03:33:47;89.72;;;36.70;;
60054;SDS011;45930;53.514;55.904;2022-12-07T03:35:00;80.85;;;31.23;;
60054;SDS011;45930;53.514;55.904;2022-12-07T03:36:19;86.38;;;33.30;;
60054;SDS011;45930;53.514;55.904;2022-12-07T03:37:32;69.50;;;30.10;;
60054;SDS011;45930;53.514;55.904;2022-12-07T03:38:37;95.68;;;35.78;;
60054;SDS011;45930;53.514;55.904;2022-12-07T03:39:48;72.28;;;30.98;;
60054;SDS011;45930;53.514;55.904;2022-12-07T03:42:15;90.93;;;32.95;;
60054;SDS011;45930;53.514;55.904;2022-12-07T03:43:16;87.57;;;33.50;;
60054;SDS011;45930;53.514;55.904;2022-12-07T03:44:18;96.30;;;35.45;;
60054;SDS011;45930;53.514;55.904;2022-12-07T03:45:22;89.95;;;34.22;;
60054;SDS011;45930;53.514;55.904;2022-12-07T03:50:44;83.90;;;31.10;;
60054;SDS011;45930;53.514;55.904;2022-12-07T03:51:54;67.85;;;28.65;;
60054;SDS011;45930;53.514;55.904;2022-12-07T03:53:12;63.35;;;29.27;;
60054;SDS011;45930;53.514;55.904;2022-12-07T03:54:29;65.65;;;31.35;;
60054;SDS011;45930;53.514;55.904;2022-12-07T03:55:32;68.85;;;29.30;;
60054;SDS011;45930;53.514;55.904;2022-12-07T03:56:38;81.72;;;33.30;;
60054;SDS011;45930;53.514;55.904;2022-12-07T03:57:40;73.68;;;30.70;;
60054;SDS011;45930;53.514;55.904;2022-12-07T03:58:45;88.28;;;31.77;;
60054;SDS011;45930;53.514;55.904;2022-12-07T03:59:46;78.97;;;32.65;;
60054;SDS011;45930;53.514;55.904;2022-12-07T04:00:48;87.30;;;33.33;;
60054;SDS011;45930;53.514;55.904;2022-12-07T04:01:54;82.05;;;31.77;;
60054;SDS011;45930;53.514;55.904;2022-12-07T04:02:57;76.22;;;33.63;;
60054;SDS011;45930;53.514;55.904;2022-12-07T04:03:58;77.80;;;32.40;;
60054;SDS011;45930;53.514;55.904;2022-12-07T04:04:59;76.10;;;32.17;;
60054;SDS011;45930;53.514;55.904;2022-12-07T04:06:00;88.17;;;33.90;;
60054;SDS011;45930;53.514;55.904;2022-12-07T04:07:01;79.68;;;33.20;;
60054;SDS011;45930;53.514;55.904;2022-12-07T04:08:02;85.18;;;33.40;;
60054;SDS011;45930;53.514;55.904;2022-12-07T04:09:03;90.27;;;34.33;;
60054;SDS011;45930;53.514;55.904;2022-12-07T04:10:04;85.10;;;34.27;;
60054;SDS011;45930;53.514;55.904;2022-12-07T04:11:05;79.20;;;32.88;;
60054;SDS011;45930;53.514;55.904;2022-12-07T04:12:06;75.00;;;33.23;;
60054;SDS011;45930;53.514;55.904;2022-12-07T04:13:07;87.18;;;33.72;;
60054;SDS011;45930;53.514;55.904;2022-12-07T04:14:08;79.53;;;33.00;;
60054;SDS011;45930;53.514;55.904;2022-12-07T04:15:21;72.15;;;30.77;;
60054;SDS011;45930;53.514;55.904;2022-12-07T04:16:21;85.23;;;34.40;;
60054;SDS011;45930;53.514;55.904;2022-12-07T04:17:22;79.33;;;31.77;;
60054;SDS011;45930;53.514;55.904;2022-12-07T04:18:23;94.77;;;33.97;;
60054;SDS011;45930;53.514;55.904;2022-12-07T04:19:25;101.53;;;34.20;;
60054;SDS011;45930;53.514;55.904;2022-12-07T04:20:27;88.70;;;33.20;;
60054;SDS011;45930;53.514;55.904;2022-12-07T04:21:28;83.93;;;33.67;;
60054;SDS011;45930;53.514;55.904;2022-12-07T04:22:29;104.93;;;35.67;;
60054;SDS011;45930;53.514;55.904;2022-12-07T04:23:29;98.37;;;36.20;;
60054;SDS011;45930;53.514;55.904;2022-12-07T04:24:30;99.53;;;37.07;;
60054;SDS011;45930;53.514;55.904;2022-12-07T04:25:32;88.45;;;34.95;;
60054;SDS011;45930;53.514;55.904;2022-12-07T04:26:32;98.03;;;34.90;;
60054;SDS011;45930;53.514;55.904;2022-12-07T04:27:33;97.43;;;36.83;;
60054;SDS011;45930;53.514;55.904;2022-12-07T04:28:34;101.47;;;35.30;;
60054;SDS011;45930;53.514;55.904;2022-12-07T04:29:35;97.87;;;35.50;;
60054;SDS011;45930;53.514;55.904;2022-12-07T04:30:36;104.23;;;36.47;;
60054;SDS011;45930;53.514;55.904;2022-12-07T04:31:36;100.50;;;39.30;;
60054;SDS011;45930;53.514;55.904;2022-12-07T04:32:37;116.20;;;42.72;;
60054;SDS011;45930;53.514;55.904;2022-12-07T04:33:38;95.80;;;37.15;;
60054;SDS011;45930;53.514;55.904;2022-12-07T04:34:39;99.17;;;37.23;;
60054;SDS011;45930;53.514;55.904;2022-12-07T04:35:42;94.40;;;37.80;;
60054;SDS011;45930;53.514;55.904;2022-12-07T04:36:43;101.82;;;40.10;;
60054;SDS011;45930;53.514;55.904;2022-12-07T04:37:44;97.40;;;36.63;;
60054;SDS011;45930;53.514;55.904;2022-12-07T04:38:46;94.90;;;38.33;;
60054;SDS011;45930;53.514;55.904;2022-12-07T04:39:49;76.30;;;33.53;;
60054;SDS011;45930;53.514;55.904;2022-12-07T04:40:50;77.67;;;34.47;;
60054;SDS011;45930;53.514;55.904;2022-12-07T04:41:50;73.73;;;31.90;;
60054;SDS011;45930;53.514;55.904;2022-12-07T04:42:52;73.55;;;33.70;;
60054;SDS011;45930;53.514;55.904;2022-12-07T04:43:54;79.50;;;32.27;;
60054;SDS011;45930;53.514;55.904;2022-12-07T04:44:56;72.63;;;33.03;;
60054;SDS011;45930;53.514;55.904;2022-12-07T04:45:56;71.07;;;34.77;;
60054;SDS011;45930;53.514;55.904;2022-12-07T04:46:57;75.53;;;35.77;;
60054;SDS011;45930;53.514;55.904;2022-12-07T04:47:58;81.30;;;32.90;;
60054;SDS011;45930;53.514;55.904;2022-12-07T04:48:59;73.25;;;32.92;;
60054;SDS011;45930;53.514;55.904;2022-12-07T04:50:00;81.23;;;32.87;;
60054;SDS011;45930;53.514;55.904;2022-12-07T04:51:01;74.83;;;32.13;;
60054;SDS011;45930;53.514;55.904;2022-12-07T04:52:03;81.25;;;33.45;;
60054;SDS011;45930;53.514;55.904;2022-12-07T04:53:04;72.40;;;33.22;;
60054;SDS011;45930;53.514;55.904;2022-12-07T04:54:05;68.83;;;31.63;;
60054;SDS011;45930;53.514;55.904;2022-12-07T04:55:06;82.13;;;30.97;;
60054;SDS011;45930;53.514;55.904;2022-12-07T04:56:06;81.00;;;32.65;;
60054;SDS011;45930;53.514;55.904;2022-12-07T04:57:07;72.60;;;31.67;;
60054;SDS011;45930;53.514;55.904;2022-12-07T04:58:08;83.40;;;32.77;;
60054;SDS011;45930;53.514;55.904;2022-12-07T04:59:09;94.17;;;32.90;;
60054;SDS011;45930;53.514;55.904;2022-12-07T05:00:12;93.65;;;33.90;;
60054;SDS011;45930;53.514;55.904;2022-12-07T05:01:13;84.20;;;33.40;;
60054;SDS011;45930;53.514;55.904;2022-12-07T05:02:15;84.18;;;32.03;;
60054;SDS011;45930;53.514;55.904;2022-12-07T05:03:15;83.93;;;33.87;;
60054;SDS011;45930;53.514;55.904;2022-12-07T05:04:16;90.07;;;33.73;;
60054;SDS011;45930;53.514;55.904;2022-12-07T05:05:18;91.18;;;37.35;;
60054;SDS011;45930;53.514;55.904;2022-12-07T05:06:18;83.80;;;35.97;;
60054;SDS011;45930;53.514;55.904;2022-12-07T05:07:19;76.07;;;34.35;;
60054;SDS011;45930;53.514;55.904;2022-12-07T05:08:20;85.27;;;36.77;;
60054;SDS011;45930;53.514;55.904;2022-12-07T05:09:21;83.63;;;34.80;;
60054;SDS011;45930;53.514;55.904;2022-12-07T05:10:22;85.73;;;33.70;;
60054;SDS011;45930;53.514;55.904;2022-12-07T05:11:23;100.93;;;38.77;;
60054;SDS011;45930;53.514;55.904;2022-12-07T05:12:38;73.10;;;32.40;;
60054;SDS011;45930;53.514;55.904;2022-12-07T05:13:39;102.73;;;36.77;;
60054;SDS011;45930;53.514;55.904;2022-12-07T05:14:40;79.00;;;34.73;;
60054;SDS011;45930;53.514;55.904;2022-12-07T05:15:41;88.87;;;34.97;;
60054;SDS011;45930;53.514;55.904;2022-12-07T05:16:44;76.95;;;35.00;;
60054;SDS011;45930;53.514;55.904;2022-12-07T05:17:46;89.45;;;34.88;;
60054;SDS011;45930;53.514;55.904;2022-12-07T05:18:47;79.53;;;32.80;;
60054;SDS011;45930;53.514;55.904;2022-12-07T05:19:47;78.33;;;32.83;;
60054;SDS011;45930;53.514;55.904;2022-12-07T05:20:48;81.97;;;35.97;;
60054;SDS011;45930;53.514;55.904;2022-12-07T05:21:49;82.40;;;32.80;;
60054;SDS011;45930;53.514;55.904;2022-12-07T05:22:50;97.67;;;38.80;;
60054;SDS011;45930;53.514;55.904;2022-12-07T05:23:51;83.50;;;34.20;;
60054;SDS011;45930;53.514;55.904;2022-12-07T05:24:51;88.70;;;37.72;;
60054;SDS011;45930;53.514;55.904;2022-12-07T05:25:52;84.47;;;33.27;;
60054;SDS011;45930;53.514;55.904;2022-12-07T05:26:53;84.23;;;33.43;;
60054;SDS011;45930;53.514;55.904;2022-12-07T05:27:54;96.80;;;36.07;;
60054;SDS011;45930;53.514;55.904;2022-12-07T05:28:57;81.43;;;32.97;;
60054;SDS011;45930;53.514;55.904;2022-12-07T05:29:57;81.88;;;31.50;;
60054;SDS011;45930;53.514;55.904;2022-12-07T05:30:58;85.17;;;35.43;;
60054;SDS011;45930;53.514;55.904;2022-12-07T05:31:59;93.87;;;36.07;;
60054;SDS011;45930;53.514;55.904;2022-12-07T05:33:00;83.10;;;34.63;;
60054;SDS011;45930;53.514;55.904;2022-12-07T05:34:01;73.95;;;32.53;;
60054;SDS011;45930;53.514;55.904;2022-12-07T05:35:02;80.33;;;34.40;;
60054;SDS011;45930;53.514;55.904;2022-12-07T05:36:03;88.10;;;33.97;;
60054;SDS011;45930;53.514;55.904;2022-12-07T05:37:05;87.93;;;35.70;;
60054;SDS011;45930;53.514;55.904;2022-12-07T05:38:06;82.67;;;32.07;;
60054;SDS011;45930;53.514;55.904;2022-12-07T05:39:07;86.27;;;36.83;;
60054;SDS011;45930;53.514;55.904;2022-12-07T05:40:08;82.73;;;36.43;;
60054;SDS011;45930;53.514;55.904;2022-12-07T05:41:09;81.88;;;35.28;;
60054;SDS011;45930;53.514;55.904;2022-12-07T05:42:34;84.25;;;31.75;;
60054;SDS011;45930;53.514;55.904;2022-12-07T05:43:35;87.07;;;33.07;;
60054;SDS011;45930;53.514;55.904;2022-12-07T05:44:37;76.55;;;33.85;;
60054;SDS011;45930;53.514;55.904;2022-12-07T05:45:39;83.82;;;35.20;;
60054;SDS011;45930;53.514;55.904;2022-12-07T05:46:39;89.67;;;33.50;;
60054;SDS011;45930;53.514;55.904;2022-12-07T05:47:40;88.90;;;35.37;;
60054;SDS011;45930;53.514;55.904;2022-12-07T05:48:41;88.67;;;36.13;;
60054;SDS011;45930;53.514;55.904;2022-12-07T05:49:41;87.40;;;33.97;;
60054;SDS011;45930;53.514;55.904;2022-12-07T05:50:42;84.37;;;37.27;;
60054;SDS011;45930;53.514;55.904;2022-12-07T05:51:46;86.47;;;35.73;;
60054;SDS011;45930;53.514;55.904;2022-12-07T05:52:47;69.40;;;32.88;;
60054;SDS011;45930;53.514;55.904;2022-12-07T05:53:47;81.67;;;34.90;;
60054;SDS011;45930;53.514;55.904;2022-12-07T05:54:48;79.00;;;34.10;;
60054;SDS011;45930;53.514;55.904;2022-12-07T05:55:49;84.13;;;36.23;;
60054;SDS011;45930;53.514;55.904;2022-12-07T05:56:50;80.77;;;34.77;;
60054;SDS011;45930;53.514;55.904;2022-12-07T05:57:50;85.27;;;34.80;;
60054;SDS011;45930;53.514;55.904;2022-12-07T05:59:10;81.25;;;33.38;;
60054;SDS011;45930;53.514;55.904;2022-12-07T06:00:23;77.22;;;31.50;;
60054;SDS011;45930;53.514;55.904;2022-12-07T06:01:23;80.53;;;34.10;;
60054;SDS011;45930;53.514;55.904;2022-12-07T06:02:25;82.40;;;33.55;;
60054;SDS011;45930;53.514;55.904;2022-12-07T06:03:26;86.67;;;36.80;;
60054;SDS011;45930;53.514;55.904;2022-12-07T06:04:28;77.88;;;32.97;;
60054;SDS011;45930;53.514;55.904;2022-12-07T06:05:30;86.38;;;35.63;;
60054;SDS011;45930;53.514;55.904;2022-12-07T06:06:31;87.30;;;36.60;;
60054;SDS011;45930;53.514;55.904;2022-12-07T06:07:32;82.50;;;37.00;;
60054;SDS011;45930;53.514;55.904;2022-12-07T06:08:33;75.93;;;33.27;;
60054;SDS011;45930;53.514;55.904;2022-12-07T06:09:34;83.97;;;35.70;;
60054;SDS011;45930;53.514;55.904;2022-12-07T06:10:35;76.28;;;32.38;;
60054;SDS011;45930;53.514;55.904;2022-12-07T06:11:36;75.83;;;33.83;;
60054;SDS011;45930;53.514;55.904;2022-12-07T06:12:55;85.88;;;35.78;;
60054;SDS011;45930;53.514;55.904;2022-12-07T06:13:56;95.90;;;35.10;;
60054;SDS011;45930;53.514;55.904;2022-12-07T06:14:57;84.53;;;35.17;;
60054;SDS011;45930;53.514;55.904;2022-12-07T06:15:58;91.18;;;39.72;;
60054;SDS011;45930;53.514;55.904;2022-12-07T06:16:59;93.17;;;37.27;;
60054;SDS011;45930;53.514;55.904;2022-12-07T06:18:00;89.03;;;35.83;;
60054;SDS011;45930;53.514;55.904;2022-12-07T06:19:00;95.63;;;38.53;;
60054;SDS011;45930;53.514;55.904;2022-12-07T06:20:01;98.13;;;38.60;;
60054;SDS011;45930;53.514;55.904;2022-12-07T06:21:03;78.80;;;35.50;;
60054;SDS011;45930;53.514;55.904;2022-12-07T06:22:04;90.47;;;36.00;;
60054;SDS011;45930;53.514;55.904;2022-12-07T06:23:05;90.75;;;38.03;;
60054;SDS011;45930;53.514;55.904;2022-12-07T06:24:06;92.70;;;36.53;;
60054;SDS011;45930;53.514;55.904;2022-12-07T06:25:07;80.65;;;34.35;;
60054;SDS011;45930;53.514;55.904;2022-12-07T06:26:09;100.82;;;37.92;;
60054;SDS011;45930;53.514;55.904;2022-12-07T06:27:09;90.33;;;37.27;;
60054;SDS011;45930;53.514;55.904;2022-12-07T06:28:10;91.57;;;37.58;;
60054;SDS011;45930;53.514;55.904;2022-12-07T06:29:11;84.97;;;37.27;;
60054;SDS011;45930;53.514;55.904;2022-12-07T06:30:13;78.88;;;35.75;;
60054;SDS011;45930;53.514;55.904;2022-12-07T06:31:14;97.40;;;39.63;;
60054;SDS011;45930;53.514;55.904;2022-12-07T06:32:17;98.90;;;36.78;;
60054;SDS011;45930;53.514;55.904;2022-12-07T06:33:18;94.73;;;36.00;;
60054;SDS011;45930;53.514;55.904;2022-12-07T06:34:19;97.67;;;41.80;;
60054;SDS011;45930;53.514;55.904;2022-12-07T06:35:22;83.30;;;34.20;;
60054;SDS011;45930;53.514;55.904;2022-12-07T06:36:23;82.27;;;37.43;;
60054;SDS011;45930;53.514;55.904;2022-12-07T06:37:24;92.93;;;38.17;;
60054;SDS011;45930;53.514;55.904;2022-12-07T06:38:25;81.10;;;36.00;;